createdAt,value
2017-06-15T00:01:08.095Z,6.50
2017-06-15T00:03:36.207Z,6.33
2017-06-15T00:06:04.339Z,6.07
2017-06-15T00:08:32.471Z,7.20
2017-06-15T00:11:00.578Z,6.07
2017-06-15T00:13:29.626Z,6.17
2017-06-15T00:15:57.770Z,6.63
2017-06-15T00:18:25.876Z,6.00
2017-06-15T00:20:54.005Z,5.90
2017-06-15T00:23:22.098Z,7.50
2017-06-15T00:25:50.257Z,7.87
2017-06-15T00:28:18.386Z,6.90
2017-06-15T00:30:46.536Z,7.93
2017-06-15T00:33:14.626Z,6.60
2017-06-15T00:35:42.746Z,7.50
2017-06-15T00:38:10.845Z,8.00
2017-06-15T00:40:38.959Z,6.43
2017-06-15T00:43:07.086Z,6.80
2017-06-15T00:45:35.226Z,7.73
2017-06-15T00:48:03.322Z,7.47
2017-06-15T00:50:31.464Z,7.20
2017-06-15T00:52:59.615Z,8.13
2017-06-15T00:55:27.773Z,7.87
2017-06-15T00:57:55.897Z,7.90
2017-06-15T01:00:24.005Z,6.80
2017-06-15T01:02:52.140Z,7.70
2017-06-15T01:05:20.239Z,7.27
2017-06-15T01:07:48.360Z,7.20
2017-06-15T01:10:19.408Z,8.00
2017-06-15T01:12:47.543Z,7.23
2017-06-15T01:15:15.647Z,7.40
2017-06-15T01:17:43.763Z,6.97
2017-06-15T01:20:11.882Z,7.37
2017-06-15T01:22:40.012Z,7.73
2017-06-15T01:25:08.152Z,7.60
2017-06-15T01:27:36.282Z,6.87
2017-06-15T01:30:04.382Z,6.47
2017-06-15T01:32:32.509Z,6.97
2017-06-15T01:35:00.650Z,7.60
2017-06-15T01:37:28.776Z,7.63
2017-06-15T01:39:56.897Z,7.40
2017-06-15T01:42:25.021Z,7.23
2017-06-15T01:44:53.185Z,7.10
2017-06-15T01:47:21.295Z,9.30
2017-06-15T01:49:49.386Z,7.80
2017-06-15T01:52:17.511Z,6.97
2017-06-15T01:54:45.630Z,8.03
2017-06-15T01:57:13.783Z,7.83
2017-06-15T01:59:41.918Z,8.00
2017-06-15T02:02:10.065Z,8.17
2017-06-15T02:04:38.166Z,7.93
2017-06-15T02:07:06.266Z,8.43
2017-06-15T02:09:34.410Z,7.83
2017-06-15T02:12:02.506Z,7.90
2017-06-15T02:14:30.625Z,7.13
2017-06-15T02:16:58.731Z,7.10
2017-06-15T02:19:26.822Z,7.17
2017-06-15T02:21:54.935Z,7.70
2017-06-15T02:24:23.964Z,7.97
2017-06-15T02:26:52.075Z,7.30
2017-06-15T02:29:20.210Z,6.90
2017-06-15T02:31:49.307Z,6.70
2017-06-15T02:34:17.393Z,7.43
2017-06-15T02:36:45.528Z,7.00
2017-06-15T02:39:13.641Z,9.33
2017-06-15T02:41:41.776Z,8.20
2017-06-15T02:44:09.946Z,6.90
2017-06-15T02:46:38.078Z,7.83
2017-06-15T02:49:06.184Z,8.10
2017-06-15T02:51:34.307Z,7.23
2017-06-15T02:54:02.417Z,8.27
2017-06-15T02:56:30.557Z,7.67
2017-06-15T02:59:11.694Z,7.50
2017-06-15T03:01:39.798Z,8.10
2017-06-15T03:04:07.954Z,7.20
2017-06-15T03:06:36.051Z,7.93
2017-06-15T03:09:04.174Z,7.80
2017-06-15T03:11:32.335Z,8.40
2017-06-15T03:14:00.481Z,10.40
2017-06-15T03:16:29.545Z,8.40
2017-06-15T03:18:57.638Z,9.00
2017-06-15T03:21:25.750Z,8.10
2017-06-15T03:23:53.874Z,7.43
2017-06-15T03:26:21.975Z,6.83
2017-06-15T03:28:50.058Z,7.07
2017-06-15T03:31:18.189Z,5.97
2017-06-15T03:33:46.292Z,6.17
2017-06-15T03:36:14.418Z,5.63
2017-06-15T03:38:42.552Z,6.23
2017-06-15T03:41:10.720Z,5.30
2017-06-15T03:43:39.396Z,5.67
2017-06-15T03:46:07.499Z,5.70
2017-06-15T03:48:35.658Z,5.27
2017-06-15T03:51:03.767Z,5.00
2017-06-15T03:53:31.916Z,4.73
2017-06-15T03:56:00.062Z,6.20
2017-06-15T03:58:28.208Z,4.93
2017-06-15T04:00:56.384Z,4.63
2017-06-15T04:03:24.516Z,4.70
2017-06-15T04:05:52.637Z,5.60
2017-06-15T04:08:20.753Z,5.13
2017-06-15T04:10:48.868Z,4.80
2017-06-15T04:13:17.006Z,4.17
2017-06-15T04:15:45.166Z,4.50
2017-06-15T04:18:13.274Z,4.20
2017-06-15T04:20:41.398Z,4.63
2017-06-15T04:23:09.518Z,4.87
2017-06-15T04:25:38.672Z,4.20
2017-06-15T04:28:06.797Z,4.30
2017-06-15T04:30:34.923Z,4.50
2017-06-15T04:33:03.050Z,4.40
2017-06-15T04:35:31.201Z,4.53
2017-06-15T04:37:59.294Z,4.83
2017-06-15T04:40:31.518Z,4.27
2017-06-15T04:42:59.644Z,4.30
2017-06-15T04:45:27.775Z,4.70
2017-06-15T04:47:57.821Z,3.33
2017-06-15T04:50:25.966Z,3.83
2017-06-15T04:52:54.117Z,3.60
2017-06-15T04:55:23.196Z,3.63
2017-06-15T04:57:51.316Z,4.03
2017-06-15T05:00:19.426Z,4.17
2017-06-15T05:02:47.543Z,3.90
2017-06-15T05:05:15.673Z,3.83
2017-06-15T05:07:44.719Z,3.10
2017-06-15T05:10:13.178Z,3.20
2017-06-15T05:12:47.326Z,3.47
2017-06-15T05:15:16.743Z,3.43
2017-06-15T05:17:44.870Z,3.77
2017-06-15T05:20:13.006Z,4.33
2017-06-15T05:22:41.124Z,4.13
2017-06-15T05:25:09.242Z,3.40
2017-06-15T05:27:37.366Z,4.33
2017-06-15T05:30:05.464Z,3.70
2017-06-15T05:32:33.554Z,4.00
2017-06-15T05:35:01.653Z,4.03
2017-06-15T05:37:29.798Z,4.43
2017-06-15T05:39:57.999Z,4.33
2017-06-15T05:42:26.121Z,6.03
2017-06-15T05:44:54.249Z,4.80
2017-06-15T05:47:25.379Z,4.50
2017-06-15T05:49:53.519Z,4.77
2017-06-15T05:52:21.626Z,5.10
2017-06-15T05:54:49.748Z,5.77
2017-06-15T05:57:17.933Z,4.70
2017-06-15T05:59:46.041Z,5.37
2017-06-15T06:02:14.181Z,4.97
2017-06-15T06:04:42.335Z,5.47
2017-06-15T06:07:10.450Z,5.50
2017-06-15T06:09:38.589Z,5.60
2017-06-15T06:12:06.696Z,5.50
2017-06-15T06:14:34.781Z,5.30
2017-06-15T06:17:02.951Z,5.53
2017-06-15T06:19:31.087Z,4.80
2017-06-15T06:21:59.206Z,5.57
2017-06-15T06:24:27.376Z,5.07
2017-06-15T06:26:55.497Z,4.57
2017-06-15T06:29:25.772Z,4.87
2017-06-15T06:31:53.895Z,4.60
2017-06-15T06:34:22.041Z,4.83
2017-06-15T06:36:50.170Z,5.20
2017-06-15T06:39:18.314Z,4.93
2017-06-15T06:41:46.478Z,5.73
2017-06-15T06:44:14.633Z,5.50
2017-06-15T06:46:42.746Z,5.60
2017-06-15T06:49:10.894Z,5.70
2017-06-15T06:51:39.040Z,5.70
2017-06-15T06:54:07.134Z,5.90
2017-06-15T06:56:36.283Z,6.03
2017-06-15T06:59:04.393Z,4.60
2017-06-15T07:01:32.522Z,5.43
2017-06-15T07:04:02.670Z,5.10
2017-06-15T07:06:30.803Z,4.70
2017-06-15T07:08:58.991Z,5.47
2017-06-15T07:11:27.081Z,5.60
2017-06-15T07:13:55.183Z,4.90
2017-06-15T07:16:23.302Z,5.10
2017-06-15T07:18:56.165Z,5.50
2017-06-15T07:21:24.285Z,5.40
2017-06-15T07:23:52.385Z,4.80
2017-06-15T07:26:20.483Z,4.80
2017-06-15T07:28:48.646Z,4.27
2017-06-15T07:31:16.750Z,4.17
2017-06-15T07:33:44.918Z,4.80
2017-06-15T07:36:19.179Z,4.13
2017-06-15T07:38:47.368Z,4.43
2017-06-15T07:41:15.487Z,4.20
2017-06-15T07:43:47.380Z,3.90
2017-06-15T07:46:15.533Z,3.80
2017-06-15T07:48:49.597Z,4.47
2017-06-15T07:51:17.749Z,4.23
2017-06-15T07:53:45.982Z,3.80
2017-06-15T07:56:14.146Z,3.10
2017-06-15T07:58:42.293Z,4.13
2017-06-15T08:01:10.419Z,3.53
2017-06-15T08:03:38.570Z,4.10
2017-06-15T08:06:06.694Z,3.60
2017-06-15T08:08:34.834Z,3.60
2017-06-15T08:11:03.080Z,4.13
2017-06-15T08:13:31.191Z,4.37
2017-06-15T08:15:59.357Z,3.40
2017-06-15T08:18:27.496Z,3.80
2017-06-15T08:20:55.599Z,3.80
2017-06-15T08:23:23.732Z,3.30
2017-06-15T08:25:51.854Z,3.40
2017-06-15T08:28:20.049Z,3.40
2017-06-15T08:30:48.170Z,3.57
2017-06-15T08:33:16.259Z,3.67
2017-06-15T08:35:51.680Z,3.30
2017-06-15T08:38:19.795Z,3.57
2017-06-15T08:40:48.813Z,3.30
2017-06-15T08:43:16.939Z,2.80
2017-06-15T08:45:45.215Z,3.00
2017-06-15T08:48:13.329Z,3.10
2017-06-15T08:50:41.447Z,3.40
2017-06-15T08:53:09.722Z,3.73
2017-06-15T08:55:37.878Z,3.60
2017-06-15T08:58:06.006Z,3.43
2017-06-15T09:00:34.173Z,3.93
2017-06-15T09:03:02.323Z,3.30
2017-06-15T09:05:32.537Z,3.37
2017-06-15T09:08:00.662Z,3.40
2017-06-15T09:10:28.798Z,3.70
2017-06-15T09:12:56.940Z,3.43
2017-06-15T09:15:25.062Z,4.50
2017-06-15T09:17:54.164Z,3.43
2017-06-15T09:20:22.296Z,2.83
2017-06-15T09:22:50.407Z,3.20
2017-06-15T09:25:18.539Z,3.70
2017-06-15T09:27:46.788Z,3.40
2017-06-15T09:30:16.827Z,3.87
2017-06-15T09:32:44.961Z,3.90
2017-06-15T09:35:13.110Z,3.53
2017-06-15T09:37:41.211Z,3.30
2017-06-15T09:40:09.401Z,3.17
2017-06-15T09:42:37.531Z,3.53
2017-06-15T09:45:05.703Z,3.20
2017-06-15T09:47:33.902Z,3.73
2017-06-15T09:50:02.905Z,3.60
2017-06-15T09:52:31.731Z,3.47
2017-06-15T09:54:59.842Z,3.80
2017-06-15T09:57:29.959Z,3.30
2017-06-15T09:59:58.117Z,3.63
2017-06-15T10:02:26.287Z,3.57
2017-06-15T10:04:54.669Z,3.13
2017-06-15T10:07:22.817Z,3.40
2017-06-15T10:09:50.983Z,3.50
2017-06-15T10:12:29.012Z,3.50
2017-06-15T10:14:57.142Z,4.50
2017-06-15T10:17:25.255Z,4.37
2017-06-15T10:19:53.364Z,3.23
2017-06-15T10:22:21.543Z,3.47
2017-06-15T10:24:49.642Z,3.60
2017-06-15T10:27:17.772Z,3.70
2017-06-15T10:29:45.932Z,3.17
2017-06-15T10:32:14.079Z,3.50
2017-06-15T10:34:42.198Z,3.87
2017-06-15T10:37:10.315Z,4.00
2017-06-15T10:39:38.451Z,3.87
2017-06-15T10:42:10.571Z,3.27
2017-06-15T10:44:38.674Z,3.20
2017-06-15T10:47:06.818Z,3.57
2017-06-15T10:49:35.002Z,2.90
2017-06-15T10:52:03.130Z,2.93
2017-06-15T10:54:31.270Z,3.90
2017-06-15T10:56:59.397Z,2.93
2017-06-15T10:59:27.607Z,3.10
2017-06-15T11:01:55.755Z,3.40
2017-06-15T11:04:23.966Z,3.00
2017-06-15T11:06:52.732Z,3.80
2017-06-15T11:09:22.037Z,3.30
2017-06-15T11:11:50.209Z,3.67
2017-06-15T11:14:18.361Z,3.17
2017-06-15T11:16:46.543Z,3.30
2017-06-15T11:19:18.202Z,3.47
2017-06-15T11:21:48.483Z,2.87
2017-06-15T11:24:16.602Z,3.90
2017-06-15T11:26:44.702Z,3.40
2017-06-15T11:29:12.822Z,3.53
2017-06-15T11:31:41.015Z,3.27
2017-06-15T11:34:09.337Z,2.90
2017-06-15T11:36:37.492Z,3.83
2017-06-15T11:39:05.658Z,3.07
2017-06-15T11:41:33.762Z,3.47
2017-06-15T11:44:01.897Z,3.10
2017-06-15T11:46:30.097Z,3.17
2017-06-15T11:49:00.226Z,2.87
2017-06-15T11:51:28.333Z,3.13
2017-06-15T11:53:56.492Z,4.13
2017-06-15T11:56:24.624Z,3.00
2017-06-15T11:58:52.759Z,3.80
2017-06-15T12:01:20.896Z,3.23
2017-06-15T12:03:49.520Z,3.30
2017-06-15T12:06:17.621Z,3.00
2017-06-15T12:08:45.743Z,3.50
2017-06-15T12:11:13.866Z,3.00
2017-06-15T12:13:41.991Z,3.20
2017-06-15T12:16:10.119Z,2.73
2017-06-15T12:18:38.217Z,2.80
2017-06-15T12:21:06.391Z,2.57
2017-06-15T12:23:34.530Z,2.77
2017-06-15T12:26:04.738Z,3.17
2017-06-15T12:28:32.841Z,3.30
2017-06-15T12:31:00.952Z,3.00
2017-06-15T12:33:29.075Z,3.10
2017-06-15T12:35:57.185Z,3.60
2017-06-15T12:38:25.318Z,2.70
2017-06-15T12:40:53.424Z,2.97
2017-06-15T12:43:21.548Z,2.73
2017-06-15T12:45:51.999Z,2.93
2017-06-15T12:48:20.128Z,2.93
2017-06-15T12:50:48.272Z,2.73
2017-06-15T12:53:16.413Z,3.13
2017-06-15T12:55:44.564Z,3.33
2017-06-15T12:58:12.692Z,3.10
2017-06-15T13:00:40.813Z,3.03
2017-06-15T13:03:09.900Z,3.40
2017-06-15T13:05:38.068Z,3.17
2017-06-15T13:08:06.194Z,3.13
2017-06-15T13:10:34.346Z,3.20
2017-06-15T13:13:02.487Z,3.77
2017-06-15T13:15:30.638Z,2.50
2017-06-15T13:17:58.806Z,2.70
2017-06-15T13:20:26.971Z,3.13
2017-06-15T13:22:55.155Z,3.40
2017-06-15T13:25:23.259Z,2.87
2017-06-15T13:27:51.388Z,3.20
2017-06-15T13:30:19.529Z,3.20
2017-06-15T13:32:47.663Z,3.20
2017-06-15T13:35:15.845Z,3.60
2017-06-15T13:37:43.968Z,3.60
2017-06-15T13:40:14.160Z,3.33
2017-06-15T13:42:42.270Z,3.47
2017-06-15T13:45:10.370Z,3.53
2017-06-15T13:47:38.529Z,3.57
2017-06-15T13:50:17.109Z,3.47
2017-06-15T13:52:45.244Z,3.90
2017-06-15T13:55:13.389Z,3.23
2017-06-15T13:57:41.494Z,3.90
2017-06-15T14:00:09.643Z,3.20
2017-06-15T14:02:37.779Z,3.00
2017-06-15T14:05:05.910Z,3.20
2017-06-15T14:07:34.039Z,3.00
2017-06-15T14:10:02.222Z,3.10
2017-06-15T14:12:30.338Z,3.37
2017-06-15T14:14:58.439Z,2.87
2017-06-15T14:17:26.576Z,3.23
2017-06-15T14:19:54.695Z,2.70
2017-06-15T14:22:22.830Z,2.73
2017-06-15T14:24:50.995Z,2.70
2017-06-15T14:27:19.120Z,2.43
2017-06-15T14:29:47.248Z,3.40
2017-06-15T14:32:15.381Z,3.60
2017-06-15T14:34:43.563Z,2.63
2017-06-15T14:37:11.717Z,2.93
2017-06-15T14:39:39.874Z,2.47
2017-06-15T14:42:08.014Z,3.13
2017-06-15T14:44:36.168Z,2.47
2017-06-15T14:47:04.300Z,3.80
2017-06-15T14:49:32.460Z,2.90
2017-06-15T14:52:00.675Z,2.67
2017-06-15T14:54:28.841Z,2.60
2017-06-15T14:56:57.051Z,3.10
2017-06-15T14:59:29.274Z,2.60
2017-06-15T15:01:57.458Z,2.50
2017-06-15T15:04:25.911Z,3.10
2017-06-15T15:06:54.050Z,2.63
2017-06-15T15:09:30.764Z,2.80
2017-06-15T15:11:58.891Z,2.70
2017-06-15T15:14:28.980Z,2.83
2017-06-15T15:17:01.845Z,2.50
2017-06-15T15:19:31.356Z,2.90
2017-06-15T15:21:59.489Z,2.50
2017-06-15T15:24:27.752Z,3.00
2017-06-15T15:26:55.879Z,2.60
2017-06-15T15:29:24.022Z,3.10
2017-06-15T15:31:53.131Z,2.40
2017-06-15T15:34:22.222Z,2.80
2017-06-15T15:36:50.336Z,3.30
2017-06-15T15:39:18.515Z,3.07
2017-06-15T15:41:48.424Z,2.97
2017-06-15T15:44:17.460Z,2.90
2017-06-15T15:46:45.647Z,3.07
2017-06-15T15:49:13.787Z,2.57
2017-06-15T15:51:41.946Z,3.20
2017-06-15T15:54:10.146Z,3.27
2017-06-15T15:56:38.274Z,2.93
2017-06-15T15:59:06.402Z,2.83
2017-06-15T16:01:34.538Z,3.30
2017-06-15T16:04:02.684Z,2.90
2017-06-15T16:06:30.817Z,3.10
2017-06-15T16:08:59.021Z,3.23
2017-06-15T16:11:27.159Z,3.00
2017-06-15T16:13:55.304Z,3.10
2017-06-15T16:16:23.412Z,3.10
2017-06-15T16:18:51.531Z,3.30
2017-06-15T16:21:19.689Z,3.00
2017-06-15T16:23:47.786Z,3.30
2017-06-15T16:26:15.903Z,3.60
2017-06-15T16:28:45.083Z,3.07
2017-06-15T16:31:13.223Z,3.50
2017-06-15T16:33:41.328Z,3.27
2017-06-15T16:36:09.552Z,3.43
2017-06-15T16:38:37.690Z,3.53
2017-06-15T16:41:05.844Z,4.67
2017-06-15T16:43:33.965Z,3.33
2017-06-15T16:46:02.162Z,3.33
2017-06-15T16:48:30.374Z,3.87
2017-06-15T16:50:59.055Z,3.50
2017-06-15T16:53:29.194Z,3.40
2017-06-15T16:55:57.301Z,3.27
2017-06-15T16:58:25.438Z,3.50
2017-06-15T17:00:55.510Z,3.40
2017-06-15T17:03:23.741Z,4.20
2017-06-15T17:05:55.678Z,3.50
2017-06-15T17:08:23.845Z,4.20
2017-06-15T17:10:53.043Z,4.60
2017-06-15T17:13:21.135Z,4.60
2017-06-15T17:15:49.265Z,6.57
2017-06-15T17:18:18.313Z,5.00
2017-06-15T17:20:46.449Z,5.33
2017-06-15T17:23:14.652Z,4.70
2017-06-15T17:25:43.156Z,4.70
2017-06-15T17:28:23.816Z,3.57
2017-06-15T17:30:51.947Z,3.97
2017-06-15T17:33:20.051Z,4.83
2017-06-15T17:35:48.180Z,4.37
2017-06-15T17:38:16.719Z,4.77
2017-06-15T17:40:54.870Z,4.70
2017-06-15T17:43:23.953Z,5.27
2017-06-15T17:45:54.058Z,5.90
2017-06-15T17:48:22.203Z,5.57
2017-06-15T17:50:50.458Z,4.37
2017-06-15T17:53:18.567Z,5.03
2017-06-15T17:55:46.703Z,5.50
2017-06-15T17:58:15.695Z,5.57
2017-06-15T18:00:43.808Z,5.33
2017-06-15T18:03:11.964Z,5.83
2017-06-15T18:05:40.173Z,5.70
2017-06-15T18:08:10.281Z,5.20
2017-06-15T18:10:42.946Z,6.37
2017-06-15T18:13:11.130Z,6.30
2017-06-15T18:15:39.303Z,5.80
2017-06-15T18:18:07.508Z,6.03
2017-06-15T18:20:37.581Z,6.03
2017-06-15T18:23:06.995Z,5.83
2017-06-15T18:25:35.282Z,5.83
2017-06-15T18:28:03.428Z,6.63
2017-06-15T18:30:31.620Z,5.10
2017-06-15T18:32:59.958Z,6.30
2017-06-15T18:35:28.073Z,6.37
2017-06-15T18:37:57.846Z,5.60
2017-06-15T18:40:25.962Z,5.97
2017-06-15T18:42:54.088Z,5.30
2017-06-15T18:45:22.233Z,6.33
2017-06-15T18:47:50.362Z,5.50
2017-06-15T18:50:18.532Z,5.73
2017-06-15T18:52:46.656Z,6.50
2017-06-15T18:55:14.761Z,6.50
2017-06-15T18:57:42.903Z,6.80
2017-06-15T19:00:11.056Z,7.27
2017-06-15T19:02:39.250Z,7.30
2017-06-15T19:05:07.389Z,6.53
2017-06-15T19:07:35.535Z,6.63
2017-06-15T19:10:03.680Z,6.83
2017-06-15T19:12:31.829Z,7.10
2017-06-15T19:14:59.960Z,7.27
2017-06-15T19:17:29.084Z,8.20
2017-06-15T19:19:57.230Z,7.37
2017-06-15T19:22:25.347Z,7.70
2017-06-15T19:24:53.473Z,7.20
2017-06-15T19:27:21.602Z,7.10
2017-06-15T19:29:52.030Z,7.77
2017-06-15T19:32:20.151Z,7.80
2017-06-15T19:34:52.648Z,6.70
2017-06-15T19:37:20.765Z,6.77
2017-06-15T19:39:48.877Z,6.90
2017-06-15T19:42:17.967Z,7.83
2017-06-15T19:44:46.084Z,7.93
2017-06-15T19:47:14.270Z,8.27
2017-06-15T19:49:42.420Z,7.47
2017-06-15T19:52:10.499Z,7.30
2017-06-15T19:54:38.656Z,7.97
2017-06-15T19:57:07.680Z,7.40
2017-06-15T19:59:36.634Z,8.53
2017-06-15T20:02:04.775Z,7.90
2017-06-15T20:04:34.151Z,8.00
2017-06-15T20:07:02.397Z,7.60
2017-06-15T20:09:30.585Z,9.17
2017-06-15T20:11:58.725Z,8.10
2017-06-15T20:14:26.910Z,8.10
2017-06-15T20:16:55.033Z,8.37
2017-06-15T20:19:23.121Z,7.70
2017-06-15T20:21:53.159Z,9.53
2017-06-15T20:24:21.320Z,9.20
2017-06-15T20:26:49.468Z,9.27
2017-06-15T20:29:17.598Z,9.70
2017-06-15T20:31:46.123Z,9.03
2017-06-15T20:34:14.203Z,9.90
2017-06-15T20:36:42.334Z,8.37
2017-06-15T20:39:10.425Z,9.03
2017-06-15T20:41:38.570Z,8.30
2017-06-15T20:44:06.702Z,13.13
2017-06-15T20:46:34.838Z,14.30
2017-06-15T20:49:03.452Z,15.20
2017-06-15T20:51:31.614Z,14.53
2017-06-15T20:53:59.743Z,15.30
2017-06-15T20:56:27.871Z,14.30
2017-06-15T20:58:55.971Z,14.43
2017-06-15T21:01:24.127Z,13.33
2017-06-15T21:03:52.260Z,12.20
2017-06-15T21:06:20.407Z,13.60
2017-06-15T21:08:53.360Z,12.93
2017-06-15T21:11:21.501Z,12.10
2017-06-15T21:13:49.674Z,12.80
2017-06-15T21:16:17.798Z,13.00
2017-06-15T21:18:45.912Z,13.97
2017-06-15T21:21:14.024Z,14.10
2017-06-15T21:23:42.143Z,13.47
2017-06-15T21:26:10.270Z,12.60
2017-06-15T21:28:38.416Z,11.57
2017-06-15T21:31:06.728Z,10.80
2017-06-15T21:33:34.875Z,11.80
2017-06-15T21:36:03.017Z,9.17
2017-06-15T21:38:31.124Z,7.10
2017-06-15T21:40:59.247Z,7.10
2017-06-15T21:43:27.386Z,6.13
2017-06-15T21:45:55.500Z,5.93
2017-06-15T21:48:23.707Z,5.97
2017-06-15T21:53:41.835Z,5.00
2017-06-15T21:56:19.390Z,5.80
2017-06-15T21:58:48.194Z,5.80
2017-06-15T22:01:18.236Z,5.20
2017-06-15T22:03:46.330Z,5.07
2017-06-15T22:06:14.483Z,6.03
2017-06-15T22:08:42.588Z,5.93
2017-06-15T22:11:10.699Z,5.93
2017-06-15T22:13:38.821Z,6.00
2017-06-15T22:16:07.782Z,5.10
2017-06-15T22:18:35.913Z,4.17
2017-06-15T22:21:04.022Z,5.57
2017-06-15T22:23:32.157Z,3.97
2017-06-15T22:26:00.250Z,3.63
2017-06-15T22:31:36.211Z,2.73
2017-06-15T22:34:04.323Z,4.30
2017-06-15T22:36:42.665Z,2.90
2017-06-15T22:39:10.782Z,3.23
2017-06-15T22:41:41.186Z,2.87
2017-06-15T22:44:19.839Z,2.90
2017-06-15T22:52:39.687Z,3.20
2017-06-15T22:55:07.810Z,3.10
2017-06-15T22:57:35.933Z,3.80
2017-06-15T23:00:04.050Z,3.40
2017-06-15T23:02:43.720Z,3.70
2017-06-15T23:05:11.848Z,3.63
2017-06-15T23:07:39.966Z,4.00
2017-06-15T23:10:10.038Z,3.43
2017-06-15T23:12:38.154Z,4.30
2017-06-15T23:15:06.269Z,3.90
2017-06-15T23:17:34.366Z,3.50
2017-06-15T23:20:02.490Z,3.50
2017-06-15T23:22:30.607Z,3.30
2017-06-15T23:24:58.777Z,3.20
2017-06-15T23:27:26.895Z,3.20
2017-06-15T23:29:54.981Z,3.00
2017-06-15T23:32:23.086Z,3.20
2017-06-15T23:34:51.225Z,2.43
2017-06-15T23:37:19.311Z,2.60
2017-06-15T23:39:47.438Z,2.80
2017-06-15T23:42:15.619Z,2.93
2017-06-15T23:44:43.775Z,2.83
2017-06-15T23:47:11.882Z,2.70
2017-06-15T23:49:39.997Z,3.60
2017-06-15T23:52:08.990Z,3.37
2017-06-15T23:54:37.089Z,3.77
2017-06-15T23:57:05.211Z,3.30
2017-06-15T23:59:33.336Z,3.83
